Time;durP1;ratioP1;P1;durP2;ratioP2;P2;SDS_P1;SDS_P2;PMS_P1;PMS_P2;Temp;Humidity;BMP_temperature;BMP_pressure;BME280_temperature;BME280_humidity;BME280_pressure;Samples;Min_cycle;Max_cycle;Signal;HPM_P1;HPM_P2
2023/12/30 00:00:51;;;;;;;4.55;2.95;;;;;;;;;;4371322;32;69398;-72
2023/12/30 00:03:37;;;;;;;3.60;2.50;;;;;;;;;;4381149;32;67753;-72
2023/12/30 00:06:24;;;;;;;4.78;2.90;;;;;;;;;;4370491;32;72379;-73
2023/12/30 00:09:11;;;;;;;5.28;2.97;;;;;;;;;;4371300;32;65848;-73
2023/12/30 00:11:58;;;;;;;3.53;2.42;;;;;;;;;;4360085;32;68987;-72
2023/12/30 00:14:45;;;;;;;4.60;2.50;;;;;;;;;;4370757;32;60441;-73
2023/12/30 00:17:31;;;;;;;4.70;2.42;;;;;;;;;;4371087;32;69598;-72
2023/12/30 00:20:19;;;;;;;4.30;2.70;;;;;;;;;;4359963;32;69857;-73
2023/12/30 00:23:05;;;;;;;4.80;2.83;;;;;;;;;;4359800;32;68832;-72
2023/12/30 00:25:54;;;;;;;4.62;3.03;;;;;;;;;;4360751;32;60142;-73
2023/12/30 00:28:41;;;;;;;4.50;2.90;;;;;;;;;;4370955;32;70540;-73
2023/12/30 00:31:29;;;;;;;4.93;2.83;;;;;;;;;;4381633;32;68552;-73
2023/12/30 00:34:16;;;;;;;3.40;2.40;;;;;;;;;;4370864;32;66515;-71
2023/12/30 00:37:03;;;;;;;4.00;2.62;;;;;;;;;;4360653;32;73297;-72
2023/12/30 00:39:51;;;;;;;4.30;2.90;;;;;;;;;;4370625;32;67264;-73
2023/12/30 00:42:38;;;;;;;5.32;3.03;;;;;;;;;;4381809;32;68266;-72
2023/12/30 00:45:25;;;;;;;4.97;2.95;;;;;;;;;;4380886;32;60287;-72
2023/12/30 00:48:12;;;;;;;;;;;;;;;;;;4371045;32;70919;-72
2023/12/30 00:50:59;;;;;;;5.35;3.25;;;;;;;;;;4371131;32;66659;-72
2023/12/30 00:53:47;;;;;;;5.00;3.20;;;;;;;;;;4370317;32;65530;-73
2023/12/30 00:56:34;;;;;;;5.68;3.05;;;;;;;;;;4360144;32;60074;-73
2023/12/30 00:59:22;;;;;;;6.35;3.22;;;;;;;;;;4384070;32;69462;-72
2023/12/30 01:02:08;;;;;;;4.93;2.97;;;;;;;;;;4374855;32;69129;-71
2023/12/30 01:04:56;;;;;;;5.62;2.80;;;;;;;;;;4362394;32;68151;-73
2023/12/30 01:07:43;;;;;;;4.68;2.85;;;;;;;;;;4383966;32;71617;-72
2023/12/30 01:10:30;;;;;;;4.28;3.10;;;;;;;;;;4364221;32;67616;-73
2023/12/30 01:13:20;;;;;;;5.20;3.17;;;;;;;;;;4375713;32;68112;-73
2023/12/30 01:16:07;;;;;;;7.25;3.45;;;;;;;;;;4374025;32;67687;-72
2023/12/30 01:18:53;;;;;;;5.22;3.20;;;;;;;;;;4362385;32;71865;-73
2023/12/30 01:21:39;;;;;;;6.18;3.53;;;;;;;;;;3847466;37;43596;-72
2023/12/30 01:24:26;;;;;;;5.95;3.70;;;;;;;;;;4398806;32;59233;-72
2023/12/30 01:27:12;;;;;;;6.35;3.72;;;;;;;;;;4377086;32;70760;-72
2023/12/30 01:29:59;;;;;;;6.07;3.78;;;;;;;;;;4398878;32;68436;-72
2023/12/30 01:32:46;;;;;;;4.97;3.25;;;;;;;;;;4409980;32;67703;-72
2023/12/30 01:35:33;;;;;;;8.65;4.57;;;;;;;;;;4388231;32;71908;-73
2023/12/30 01:38:19;;;;;;;8.30;4.30;;;;;;;;;;4398845;32;66281;-72
2023/12/30 01:41:07;;;;;;;7.32;4.12;;;;;;;;;;4398965;32;66562;-72
2023/12/30 01:43:54;;;;;;;8.73;4.75;;;;;;;;;;4409907;32;60165;-73
2023/12/30 01:46:41;;;;;;;7.55;4.20;;;;;;;;;;4398581;32;72001;-73
2023/12/30 01:49:28;;;;;;;7.75;4.43;;;;;;;;;;4387651;32;67269;-73
2023/12/30 01:52:15;;;;;;;8.57;4.47;;;;;;;;;;4409553;32;67467;-73
2023/12/30 01:55:03;;;;;;;7.57;4.62;;;;;;;;;;4398784;32;60430;-72
2023/12/30 01:57:50;;;;;;;6.97;4.43;;;;;;;;;;4387953;32;70359;-72
2023/12/30 02:00:38;;;;;;;8.88;4.47;;;;;;;;;;4387216;32;69749;-72
2023/12/30 02:03:25;;;;;;;9.68;4.25;;;;;;;;;;4398027;32;67330;-73
2023/12/30 02:06:28;;;;;;;8.85;4.68;;;;;;;;;;3847421;37;43900;-73
2023/12/30 02:09:14;;;;;;;;;;;;;;;;;;4377819;32;61792;-72
2023/12/30 02:12:01;;;;;;;7.37;4.80;;;;;;;;;;4398337;32;71039;-72
2023/12/30 02:14:48;;;;;;;8.43;4.90;;;;;;;;;;4388251;32;68088;-73
2023/12/30 02:17:34;;;;;;;;;;;;;;;;;;4399591;32;67654;-72
2023/12/30 02:20:24;;;;;;;7.00;4.60;;;;;;;;;;4415675;32;72244;-73
2023/12/30 02:23:11;;;;;;;7.95;4.45;;;;;;;;;;4393461;32;66557;-72
2023/12/30 02:25:58;;;;;;;8.48;4.68;;;;;;;;;;4409916;32;66554;-72
2023/12/30 02:28:44;;;;;;;8.18;4.97;;;;;;;;;;4387738;32;61644;-73
2023/12/30 02:31:32;;;;;;;9.18;4.60;;;;;;;;;;4398962;32;71612;-72
2023/12/30 02:34:19;;;;;;;7.95;4.65;;;;;;;;;;4398855;32;65580;-72
2023/12/30 02:37:06;;;;;;;7.72;4.70;;;;;;;;;;4387514;32;68370;-72
2023/12/30 02:39:53;;;;;;;8.07;4.35;;;;;;;;;;4388528;32;59682;-72
2023/12/30 02:42:40;;;;;;;8.77;5.05;;;;;;;;;;4398050;32;71662;-72
2023/12/30 02:45:27;;;;;;;7.68;4.97;;;;;;;;;;4398500;32;68453;-73
2023/12/30 02:48:14;;;;;;;9.40;5.00;;;;;;;;;;4398572;32;66444;-72
2023/12/30 02:53:38;;;;;;;9.07;5.50;;;;;;;;;;3846095;37;43629;-73
2023/12/30 02:56:27;;;;;;;7.93;5.10;;;;;;;;;;4373570;32;60141;-73
2023/12/30 02:59:15;;;;;;;10.15;5.45;;;;;;;;;;4383894;32;69396;-72
2023/12/30 03:02:01;;;;;;;8.18;5.00;;;;;;;;;;4373039;32;67929;-72
2023/12/30 03:04:48;;;;;;;9.90;4.60;;;;;;;;;;4373088;32;67636;-73
2023/12/30 03:07:36;;;;;;;7.50;5.03;;;;;;;;;;4372918;32;72126;-74
2023/12/30 03:10:26;;;;;;;6.45;4.20;;;;;;;;;;4373364;32;65953;-72
2023/12/30 03:13:14;;;;;;;7.75;4.90;;;;;;;;;;4373050;32;67316;-73
2023/12/30 03:16:01;;;;;;;8.32;4.82;;;;;;;;;;4383688;32;60725;-72
2023/12/30 03:18:48;;;;;;;7.68;4.60;;;;;;;;;;4359402;32;71201;-72
2023/12/30 03:21:35;;;;;;;8.82;5.03;;;;;;;;;;4383577;32;64851;-73
2023/12/30 03:24:22;;;;;;;8.10;4.25;;;;;;;;;;4383576;32;66683;-72
2023/12/30 03:27:09;;;;;;;7.78;4.53;;;;;;;;;;4383651;32;59883;-72
2023/12/30 03:29:56;;;;;;;7.53;4.97;;;;;;;;;;4349235;32;71641;-72
2023/12/30 03:32:44;;;;;;;8.75;4.15;;;;;;;;;;4370183;32;69401;-73
2023/12/30 03:35:33;;;;;;;6.72;4.37;;;;;;;;;;4372855;32;67144;-73
2023/12/30 03:38:37;;;;;;;7.75;4.40;;;;;;;;;;3847430;37;43806;-72
2023/12/30 03:41:25;;;;;;;;;;;;;;;;;;4389071;32;58972;-73
2023/12/30 03:44:12;;;;;;;8.68;4.75;;;;;;;;;;4399480;32;70238;-72
2023/12/30 03:46:59;;;;;;;9.15;5.25;;;;;;;;;;4376856;32;68557;-73
2023/12/30 03:49:45;;;;;;;7.95;4.65;;;;;;;;;;4387371;32;69072;-73
2023/12/30 03:52:32;;;;;;;8.13;5.05;;;;;;;;;;4387475;32;71940;-73
2023/12/30 03:55:19;;;;;;;9.27;5.35;;;;;;;;;;4394341;32;65075;-73
2023/12/30 03:58:06;;;;;;;9.35;4.87;;;;;;;;;;4372949;32;67299;-72
2023/12/30 04:03:36;;;;;;;8.27;5.20;;;;;;;;;;3848153;37;43920;-73
2023/12/30 04:06:24;;;;;;;8.98;4.65;;;;;;;;;;4395782;32;60126;-73
2023/12/30 04:09:11;;;;;;;7.80;5.20;;;;;;;;;;4389055;32;71904;-73
2023/12/30 04:11:58;;;;;;;7.37;4.45;;;;;;;;;;4400296;32;68152;-73
2023/12/30 04:14:45;;;;;;;10.27;5.07;;;;;;;;;;4411948;32;67533;-73
2023/12/30 04:17:32;;;;;;;7.12;4.55;;;;;;;;;;4401460;32;71526;-73
2023/12/30 04:20:19;;;;;;;9.13;4.93;;;;;;;;;;4388690;32;67659;-73
2023/12/30 04:23:05;;;;;;;10.07;5.18;;;;;;;;;;4411097;32;66466;-72
2023/12/30 04:25:52;;;;;;;8.77;4.90;;;;;;;;;;4388556;32;59108;-72
2023/12/30 04:28:39;;;;;;;9.55;4.95;;;;;;;;;;4398072;32;72721;-72
2023/12/30 04:31:26;;;;;;;8.95;5.28;;;;;;;;;;4398232;32;67122;-73
2023/12/30 04:34:12;;;;;;;8.73;5.18;;;;;;;;;;4376590;32;67371;-73
2023/12/30 04:36:59;;;;;;;8.65;5.12;;;;;;;;;;4409143;32;60923;-72
2023/12/30 04:39:44;;;;;;;7.90;4.62;;;;;;;;;;3847326;37;43839;-72
2023/12/30 04:42:32;;;;;;;7.45;5.05;;;;;;;;;;4377803;32;58939;-73
2023/12/30 04:45:19;;;;;;;8.30;4.87;;;;;;;;;;4409701;32;69507;-72
2023/12/30 04:48:04;;;;;;;9.80;4.87;;;;;;;;;;3847343;37;43415;-72
2023/12/30 04:50:51;;;;;;;9.00;5.03;;;;;;;;;;4388218;32;61004;-72
2023/12/30 04:53:38;;;;;;;8.35;4.82;;;;;;;;;;4409796;32;70440;-72
2023/12/30 04:56:24;;;;;;;9.15;5.00;;;;;;;;;;4398765;32;69492;-72
2023/12/30 04:59:13;;;;;;;8.50;4.70;;;;;;;;;;4409871;32;66749;-72
2023/12/30 05:01:59;;;;;;;7.87;4.75;;;;;;;;;;4398901;32;71583;-72
2023/12/30 05:04:46;;;;;;;6.72;4.10;;;;;;;;;;4388237;32;65082;-72
2023/12/30 05:07:33;;;;;;;7.15;4.75;;;;;;;;;;4388173;32;67488;-72
2023/12/30 05:10:20;;;;;;;7.43;4.35;;;;;;;;;;4409819;32;59206;-72
2023/12/30 05:13:06;;;;;;;7.75;4.45;;;;;;;;;;4376706;32;71695;-72
2023/12/30 05:15:53;;;;;;;6.10;3.30;;;;;;;;;;4398923;32;64852;-73
2023/12/30 05:18:40;;;;;;;5.97;3.67;;;;;;;;;;4388264;32;67439;-72
2023/12/30 05:21:27;;;;;;;6.43;3.10;;;;;;;;;;4387276;32;59577;-72
2023/12/30 05:24:15;;;;;;;10.63;3.80;;;;;;;;;;4397760;32;71034;-72
2023/12/30 05:27:01;;;;;;;6.40;3.42;;;;;;;;;;4397984;32;69901;-72
2023/12/30 05:29:48;;;;;;;5.75;3.25;;;;;;;;;;4398521;32;66999;-73
2023/12/30 05:32:35;;;;;;;7.47;4.00;;;;;;;;;;4387862;32;71447;-72
2023/12/30 05:35:22;;;;;;;6.03;3.37;;;;;;;;;;4387399;32;66776;-72
2023/12/30 05:38:12;;;;;;;8.90;3.58;;;;;;;;;;4386935;32;70454;-73
2023/12/30 05:40:59;;;;;;;6.53;3.62;;;;;;;;;;4408753;32;69654;-73
2023/12/30 05:43:45;;;;;;;5.00;3.45;;;;;;;;;;4397837;32;71455;-74
2023/12/30 05:46:32;;;;;;;7.37;3.47;;;;;;;;;;4397528;32;67366;-75
2023/12/30 05:52:03;;;;;;;6.43;3.67;;;;;;;;;;3847485;37;43825;-74
2023/12/30 05:54:51;;;;;;;6.72;3.80;;;;;;;;;;4398401;32;59372;-74
2023/12/30 05:57:37;;;;;;;6.12;3.72;;;;;;;;;;4414556;32;71081;-71
2023/12/30 06:00:25;;;;;;;6.40;3.83;;;;;;;;;;4390951;32;67131;-75
2023/12/30 06:03:15;;;;;;;8.52;4.60;;;;;;;;;;4387830;32;66205;-74
2023/12/30 06:06:03;;;;;;;8.70;5.53;;;;;;;;;;4410914;32;71901;-74
2023/12/30 06:08:50;;;;;;;8.27;5.12;;;;;;;;;;4398852;32;66226;-73
2023/12/30 06:11:36;;;;;;;9.70;5.20;;;;;;;;;;4387996;32;67384;-72
2023/12/30 06:14:26;;;;;;;7.78;4.53;;;;;;;;;;4387876;32;58766;-75
2023/12/30 06:17:14;;;;;;;9.00;5.12;;;;;;;;;;4409306;32;70848;-74
2023/12/30 06:20:01;;;;;;;8.15;4.85;;;;;;;;;;4410597;32;65112;-74
2023/12/30 06:22:50;;;;;;;8.55;4.97;;;;;;;;;;4388446;32;67745;-73
2023/12/30 06:26:00;;;;;;;8.32;5.22;;;;;;;;;;3868594;36;43897;-74
2023/12/30 06:28:47;;;;;;;10.23;5.57;;;;;;;;;;4414889;32;59633;-73
2023/12/30 06:31:39;;;;;;;9.95;5.28;;;;;;;;;;4400811;32;69697;-74
2023/12/30 06:34:25;;;;;;;10.35;5.55;;;;;;;;;;4390053;32;68495;-73
2023/12/30 06:37:12;;;;;;;9.07;5.30;;;;;;;;;;4411311;32;66762;-73
2023/12/30 06:39:59;;;;;;;10.00;5.90;;;;;;;;;;4413854;32;71874;-74
2023/12/30 06:42:47;;;;;;;11.43;5.85;;;;;;;;;;4406222;32;64906;-75
2023/12/30 06:45:34;;;;;;;9.73;5.62;;;;;;;;;;4426457;32;67100;-74
2023/12/30 06:48:21;;;;;;;;;;;;;;;;;;4403940;32;59113;-73
2023/12/30 06:51:11;;;;;;;9.35;5.60;;;;;;;;;;4389472;32;69533;-74
2023/12/30 06:53:57;;;;;;;9.38;5.65;;;;;;;;;;4400278;32;65027;-75
2023/12/30 06:56:44;;;;;;;10.85;5.80;;;;;;;;;;4374635;32;66475;-74
2023/12/30 06:59:31;;;;;;;;;;;;;;;;;;4386026;32;59160;-74
2023/12/30 07:02:15;;;;;;;11.02;5.72;;;;;;;;;;3847456;37;43438;-75
2023/12/30 07:05:02;;;;;;;;;;;;;;;;;;4388216;32;59194;-74
2023/12/30 07:07:48;;;;;;;10.10;5.82;;;;;;;;;;4409743;32;70343;-75
2023/12/30 07:10:35;;;;;;;14.63;5.70;;;;;;;;;;4409886;32;69722;-75
2023/12/30 07:13:22;;;;;;;10.95;6.07;;;;;;;;;;4380574;32;67200;-76
2023/12/30 07:16:09;;;;;;;9.65;5.43;;;;;;;;;;4402200;32;70784;-73
2023/12/30 07:18:56;;;;;;;9.27;5.40;;;;;;;;;;4399578;32;65815;-72
2023/12/30 07:21:42;;;;;;;10.20;5.12;;;;;;;;;;4388195;32;66729;-73
2023/12/30 07:24:29;;;;;;;8.55;5.10;;;;;;;;;;4387658;32;57882;-74
2023/12/30 07:27:16;;;;;;;9.75;5.68;;;;;;;;;;4398735;32;71471;-71
2023/12/30 07:30:02;;;;;;;9.15;5.78;;;;;;;;;;4409480;32;66154;-73
2023/12/30 07:32:50;;;;;;;9.95;5.82;;;;;;;;;;4410837;32;66641;-72
2023/12/30 07:35:36;;;;;;;10.82;6.00;;;;;;;;;;4378289;32;59134;-72
2023/12/30 07:38:23;;;;;;;8.98;5.53;;;;;;;;;;4387902;32;70114;-73
2023/12/30 07:41:14;;;;;;;9.98;5.93;;;;;;;;;;4387206;32;67790;-73
2023/12/30 07:44:01;;;;;;;10.10;5.25;;;;;;;;;;4409288;32;67999;-72
2023/12/30 07:46:48;;;;;;;8.80;5.65;;;;;;;;;;4398496;32;71933;-73
2023/12/30 07:49:35;;;;;;;;;;;;;;;;;;4398693;32;64349;-72
2023/12/30 07:52:22;;;;;;;12.20;6.40;;;;;;;;;;4387429;32;68660;-72
2023/12/30 07:55:09;;;;;;;9.10;5.62;;;;;;;;;;4387617;32;67691;-73
2023/12/30 07:57:56;;;;;;;;;;;;;;;;;;4376740;32;72620;-73
2023/12/30 08:00:43;;;;;;;9.77;5.70;;;;;;;;;;4376148;32;67579;-73
2023/12/30 08:03:30;;;;;;;10.82;6.60;;;;;;;;;;4398398;32;67352;-72
2023/12/30 08:06:16;;;;;;;9.55;6.35;;;;;;;;;;4387940;32;60031;-73
2023/12/30 08:09:04;;;;;;;10.15;5.72;;;;;;;;;;4387131;32;70778;-73
2023/12/30 08:11:51;;;;;;;11.48;6.05;;;;;;;;;;4394737;32;70723;-72
2023/12/30 08:14:38;;;;;;;9.80;6.20;;;;;;;;;;4387569;32;67874;-73
2023/12/30 08:17:24;;;;;;;9.82;5.82;;;;;;;;;;4398927;32;59047;-72
2023/12/30 08:20:12;;;;;;;9.05;5.25;;;;;;;;;;4376852;32;71240;-72
2023/12/30 08:22:58;;;;;;;8.38;5.10;;;;;;;;;;4377514;32;69548;-72
2023/12/30 08:25:45;;;;;;;9.00;5.80;;;;;;;;;;4400147;32;67820;-73
2023/12/30 08:28:31;;;;;;;8.50;5.10;;;;;;;;;;4388042;32;71622;-73
2023/12/30 08:31:19;;;;;;;8.07;4.60;;;;;;;;;;4388405;32;64796;-72
2023/12/30 08:34:05;;;;;;;8.70;4.75;;;;;;;;;;4387321;32;68180;-72
2023/12/30 08:36:53;;;;;;;7.30;4.32;;;;;;;;;;4377502;32;60431;-72
2023/12/30 08:39:39;;;;;;;7.53;4.80;;;;;;;;;;4398387;32;70487;-74
2023/12/30 08:42:34;;;;;;;6.47;4.12;;;;;;;;;;4366113;32;66555;-72
2023/12/30 08:45:22;;;;;;;8.10;4.50;;;;;;;;;;4366500;32;67575;-73
2023/12/30 08:48:09;;;;;;;6.57;3.90;;;;;;;;;;4388279;32;59218;-73
2023/12/30 08:50:55;;;;;;;6.60;4.15;;;;;;;;;;4398382;32;69568;-73
2023/12/30 08:53:42;;;;;;;6.40;4.32;;;;;;;;;;4398183;32;69662;-73
2023/12/30 08:56:35;;;;;;;6.25;3.97;;;;;;;;;;4376957;32;67875;-73
2023/12/30 08:59:23;;;;;;;9.10;4.47;;;;;;;;;;4398282;32;72035;-73
2023/12/30 09:02:10;;;;;;;6.30;4.40;;;;;;;;;;4376802;32;66021;-73
2023/12/30 09:04:57;;;;;;;6.87;4.07;;;;;;;;;;4377381;32;67321;-73
2023/12/30 09:07:43;;;;;;;7.97;4.60;;;;;;;;;;4365699;32;67784;-73
2023/12/30 09:10:31;;;;;;;6.12;3.92;;;;;;;;;;4376679;32;70589;-73
2023/12/30 09:13:18;;;;;;;6.45;3.95;;;;;;;;;;4366949;32;67924;-74
2023/12/30 09:16:05;;;;;;;6.43;3.62;;;;;;;;;;4389498;32;66941;-74
2023/12/30 09:18:52;;;;;;;6.65;4.00;;;;;;;;;;4380628;32;59494;-72
2023/12/30 09:21:42;;;;;;;6.22;3.70;;;;;;;;;;4387529;32;69674;-72
2023/12/30 09:24:28;;;;;;;6.37;3.85;;;;;;;;;;4374864;32;67806;-73
2023/12/30 09:27:16;;;;;;;5.72;3.80;;;;;;;;;;4376123;32;66560;-72
2023/12/30 09:30:03;;;;;;;5.28;3.40;;;;;;;;;;4398190;32;60129;-72
2023/12/30 09:32:50;;;;;;;5.72;3.42;;;;;;;;;;4365496;32;70875;-73
2023/12/30 09:35:38;;;;;;;5.28;3.28;;;;;;;;;;4376407;32;69246;-73
2023/12/30 09:38:28;;;;;;;5.68;2.95;;;;;;;;;;4387716;32;67658;-72
2023/12/30 09:41:15;;;;;;;4.75;2.90;;;;;;;;;;4386436;32;71797;-74
2023/12/30 09:44:03;;;;;;;4.12;2.55;;;;;;;;;;4387081;32;65793;-73
2023/12/30 09:46:50;;;;;;;4.30;2.87;;;;;;;;;;4375805;32;65927;-72
2023/12/30 09:49:38;;;;;;;4.20;2.28;;;;;;;;;;4376493;32;60215;-73
2023/12/30 09:52:25;;;;;;;3.67;2.50;;;;;;;;;;4375914;32;70572;-73
2023/12/30 09:55:12;;;;;;;3.65;2.60;;;;;;;;;;4375323;32;65229;-73
2023/12/30 09:57:59;;;;;;;3.00;2.12;;;;;;;;;;4376059;32;67260;-73
2023/12/30 10:00:46;;;;;;;4.22;2.50;;;;;;;;;;4386716;32;60185;-73
2023/12/30 10:03:34;;;;;;;3.50;2.42;;;;;;;;;;4376087;32;71741;-72
2023/12/30 10:06:23;;;;;;;4.25;2.42;;;;;;;;;;4375561;32;69677;-73
2023/12/30 10:09:11;;;;;;;3.37;2.20;;;;;;;;;;4365108;32;68146;-73
2023/12/30 10:11:58;;;;;;;3.90;2.05;;;;;;;;;;4386287;32;72408;-72
2023/12/30 10:17:28;;;;;;;3.60;2.37;;;;;;;;;;3849070;37;43937;-72
2023/12/30 10:20:23;;;;;;;4.15;2.50;;;;;;;;;;4399465;32;60556;-73
2023/12/30 10:23:10;;;;;;;3.03;2.30;;;;;;;;;;4377649;32;69482;-73
2023/12/30 10:25:57;;;;;;;4.05;2.53;;;;;;;;;;4377254;32;70526;-73
2023/12/30 10:28:43;;;;;;;3.75;2.33;;;;;;;;;;4388305;32;67991;-72
2023/12/30 10:31:30;;;;;;;3.55;2.37;;;;;;;;;;4387249;32;72261;-72
2023/12/30 10:34:20;;;;;;;3.35;2.40;;;;;;;;;;4399522;32;66171;-72
2023/12/30 10:37:08;;;;;;;3.10;2.17;;;;;;;;;;4409857;32;67534;-73
2023/12/30 10:39:55;;;;;;;3.53;2.30;;;;;;;;;;4387918;32;61496;-72
2023/12/30 10:42:43;;;;;;;3.92;2.53;;;;;;;;;;4399197;32;71777;-73
2023/12/30 10:45:30;;;;;;;3.10;2.40;;;;;;;;;;4388555;32;64704;-74
2023/12/30 10:50:55;;;;;;;3.50;2.30;;;;;;;;;;3847569;37;43772;-74
2023/12/30 10:53:45;;;;;;;3.90;2.40;;;;;;;;;;4411421;32;59242;-73
2023/12/30 10:56:39;;;;;;;4.60;2.22;;;;;;;;;;4372964;32;71155;-74
2023/12/30 10:59:28;;;;;;;3.90;2.30;;;;;;;;;;4376739;32;68517;-73
2023/12/30 11:02:15;;;;;;;3.65;2.58;;;;;;;;;;4373686;32;67754;-73
2023/12/30 11:05:04;;;;;;;;;;;;;;;;;;4394192;32;70428;-72
2023/12/30 11:07:50;;;;;;;6.03;2.78;;;;;;;;;;4373583;32;64983;-73
2023/12/30 11:10:38;;;;;;;5.18;3.05;;;;;;;;;;4372279;32;65143;-73
2023/12/30 11:13:25;;;;;;;5.28;3.35;;;;;;;;;;4373108;32;60109;-73
2023/12/30 11:19:03;;;;;;;4.55;3.05;;;;;;;;;;3846188;37;43784;-73
2023/12/30 11:21:50;;;;;;;4.43;2.78;;;;;;;;;;4388659;32;59149;-72
2023/12/30 11:24:42;;;;;;;5.40;2.70;;;;;;;;;;4375045;32;71358;-73
2023/12/30 11:27:31;;;;;;;4.80;3.15;;;;;;;;;;4399245;32;69333;-72
2023/12/30 11:30:20;;;;;;;4.55;3.20;;;;;;;;;;4398938;32;67652;-73
2023/12/30 11:33:07;;;;;;;5.03;3.22;;;;;;;;;;4385612;32;72849;-74
2023/12/30 11:36:13;;;;;;;5.68;3.42;;;;;;;;;;4374700;32;66933;-73
2023/12/30 11:39:01;;;;;;;5.55;3.53;;;;;;;;;;4388551;32;66301;-73
2023/12/30 11:41:47;;;;;;;5.30;3.60;;;;;;;;;;4385929;32;60442;-74
2023/12/30 11:44:35;;;;;;;6.20;3.90;;;;;;;;;;4374938;32;70123;-73
2023/12/30 11:47:22;;;;;;;6.72;3.97;;;;;;;;;;4374932;32;66679;-72
2023/12/30 11:50:09;;;;;;;6.93;4.43;;;;;;;;;;4388332;32;66822;-73
2023/12/30 11:53:00;;;;;;;6.80;4.20;;;;;;;;;;4377638;32;60236;-73
2023/12/30 11:55:47;;;;;;;8.77;4.05;;;;;;;;;;4388740;32;69837;-73
2023/12/30 11:58:34;;;;;;;;;;;;;;;;;;4365067;32;68853;-74
2023/12/30 12:01:21;;;;;;;6.93;4.37;;;;;;;;;;4385991;32;68439;-74
2023/12/30 12:04:08;;;;;;;7.65;4.32;;;;;;;;;;4399505;32;70679;-73
2023/12/30 12:06:54;;;;;;;9.15;5.25;;;;;;;;;;4365718;32;64211;-72
2023/12/30 12:09:43;;;;;;;7.78;4.82;;;;;;;;;;4399579;32;69373;-72
2023/12/30 12:12:37;;;;;;;9.43;5.50;;;;;;;;;;4388714;32;66846;-73
2023/12/30 12:15:23;;;;;;;7.87;5.12;;;;;;;;;;4388018;32;71935;-73
2023/12/30 12:18:10;;;;;;;8.10;5.15;;;;;;;;;;4385422;32;64765;-72
2023/12/30 12:20:59;;;;;;;7.70;4.85;;;;;;;;;;4377517;32;66420;-74
2023/12/30 12:23:46;;;;;;;8.27;5.10;;;;;;;;;;4388505;32;60169;-73
2023/12/30 12:26:33;;;;;;;7.93;4.72;;;;;;;;;;4377976;32;70489;-74
2023/12/30 12:32:07;;;;;;;8.43;4.25;;;;;;;;;;3871107;36;43616;-72
2023/12/30 12:34:54;;;;;;;9.00;5.07;;;;;;;;;;4405898;32;60096;-73
2023/12/30 12:37:41;;;;;;;8.02;4.90;;;;;;;;;;4393515;32;69628;-72
2023/12/30 12:40:28;;;;;;;7.60;4.62;;;;;;;;;;4382573;32;70075;-72
2023/12/30 12:43:15;;;;;;;8.05;5.20;;;;;;;;;;4401422;32;66696;-73
2023/12/30 12:46:03;;;;;;;6.82;4.55;;;;;;;;;;4412785;32;72867;-72
2023/12/30 12:48:50;;;;;;;9.68;5.47;;;;;;;;;;4402429;32;63665;-73
2023/12/30 12:51:38;;;;;;;9.45;5.30;;;;;;;;;;4380336;32;65676;-73
2023/12/30 12:54:25;;;;;;;7.95;5.47;;;;;;;;;;4393413;32;60395;-73
2023/12/30 12:57:13;;;;;;;10.45;6.37;;;;;;;;;;4388422;32;71304;-73
2023/12/30 13:00:00;;;;;;;9.40;5.65;;;;;;;;;;4385601;32;67320;-73
2023/12/30 13:02:50;;;;;;;8.43;5.20;;;;;;;;;;4378615;32;66363;-73
2023/12/30 13:05:37;;;;;;;8.90;5.85;;;;;;;;;;4388537;32;59430;-73
2023/12/30 13:08:29;;;;;;;8.38;5.28;;;;;;;;;;4388933;32;70454;-74
2023/12/30 13:11:10;;;;;;;8.45;5.30;;;;;;;;;;3868876;36;43037;-73
2023/12/30 13:14:00;;;;;;;10.05;5.45;;;;;;;;;;4426970;32;59943;-73
2023/12/30 13:16:47;;;;;;;8.13;5.25;;;;;;;;;;4379627;32;70927;-73
2023/12/30 13:19:34;;;;;;;8.48;5.62;;;;;;;;;;4414306;32;68483;-74
2023/12/30 13:22:22;;;;;;;10.15;5.15;;;;;;;;;;4403685;32;66728;-72
2023/12/30 13:25:09;;;;;;;9.85;5.35;;;;;;;;;;4414401;32;71790;-72
2023/12/30 13:27:56;;;;;;;8.95;5.40;;;;;;;;;;4400752;32;66478;-73
2023/12/30 13:30:43;;;;;;;9.63;5.50;;;;;;;;;;4403573;32;67154;-73
2023/12/30 13:33:34;;;;;;;11.12;5.75;;;;;;;;;;4403853;32;59836;-73
2023/12/30 13:36:23;;;;;;;8.38;5.43;;;;;;;;;;4390014;32;70026;-73
2023/12/30 13:39:13;;;;;;;8.95;5.37;;;;;;;;;;4401065;32;66730;-73
2023/12/30 13:44:45;;;;;;;8.40;5.60;;;;;;;;;;3847500;37;43124;-73
2023/12/30 13:51:15;;;;;;;10.35;5.55;;;;;;;;;;4409595;32;70541;-72
2023/12/30 13:53:32;;;;;;;9.10;6.13;;;;;;;;;;4387824;32;68770;-74
2023/12/30 13:56:23;;;;;;;8.68;5.18;;;;;;;;;;4394261;32;67534;-73
2023/12/30 13:59:12;;;;;;;9.35;5.25;;;;;;;;;;4372599;32;70543;-73
2023/12/30 14:04:42;;;;;;;8.35;5.65;;;;;;;;;;3847495;37;43486;-73
2023/12/30 14:07:30;;;;;;;;;;;;;;;;;;4389008;32;60292;-74
2023/12/30 14:10:18;;;;;;;10.30;5.80;;;;;;;;;;4388600;32;69691;-73
2023/12/30 14:13:05;;;;;;;9.60;6.32;;;;;;;;;;4398963;32;69268;-72
2023/12/30 14:15:52;;;;;;;10.23;6.28;;;;;;;;;;4388400;32;66598;-74
2023/12/30 14:21:23;;;;;;;10.00;5.65;;;;;;;;;;3847623;37;43440;-73
2023/12/30 14:24:15;;;;;;;8.93;5.72;;;;;;;;;;4403397;32;58712;-74
2023/12/30 14:27:02;;;;;;;10.13;6.12;;;;;;;;;;4389128;32;69323;-72
2023/12/30 14:29:51;;;;;;;;;;;;;;;;;;4410443;32;69316;-73
2023/12/30 14:32:39;;;;;;;10.30;5.87;;;;;;;;;;4377453;32;66696;-73
2023/12/30 14:35:26;;;;;;;9.55;5.60;;;;;;;;;;4409527;32;70828;-73
2023/12/30 14:38:12;;;;;;;8.57;5.35;;;;;;;;;;4411150;32;65839;-73
2023/12/30 14:40:59;;;;;;;;;;;;;;;;;;4387671;32;66357;-71
2023/12/30 14:43:49;;;;;;;9.00;5.37;;;;;;;;;;4387988;32;58127;-74
2023/12/30 14:46:36;;;;;;;9.48;5.85;;;;;;;;;;4399187;32;71653;-73
2023/12/30 14:49:23;;;;;;;9.50;5.25;;;;;;;;;;4398866;32;66262;-73
2023/12/30 14:52:10;;;;;;;9.50;6.15;;;;;;;;;;4388394;32;67705;-73
2023/12/30 14:54:56;;;;;;;9.65;5.65;;;;;;;;;;4388434;32;59228;-73
2023/12/30 14:57:45;;;;;;;8.57;5.50;;;;;;;;;;4409463;32;70926;-73
2023/12/30 15:00:32;;;;;;;7.47;5.18;;;;;;;;;;4409237;32;69278;-73
2023/12/30 15:03:19;;;;;;;8.95;5.43;;;;;;;;;;4398802;32;67522;-73
2023/12/30 15:06:06;;;;;;;10.10;5.75;;;;;;;;;;4398369;32;70692;-72
2023/12/30 15:08:53;;;;;;;8.80;5.40;;;;;;;;;;4398743;32;64839;-72
2023/12/30 15:11:40;;;;;;;8.02;5.43;;;;;;;;;;4398662;32;69544;-73
2023/12/30 15:14:27;;;;;;;7.78;4.93;;;;;;;;;;4387444;32;66896;-73
2023/12/30 15:19:58;;;;;;;8.50;5.68;;;;;;;;;;3847448;37;43112;-73
2023/12/30 15:22:45;;;;;;;9.25;5.70;;;;;;;;;;4388291;32;58216;-72
2023/12/30 15:25:34;;;;;;;8.00;5.30;;;;;;;;;;4388320;32;70561;-72
2023/12/30 15:28:21;;;;;;;7.80;5.40;;;;;;;;;;4388436;32;69013;-72
2023/12/30 15:31:08;;;;;;;;;;;;;;;;;;4398640;32;67035;-72
2023/12/30 15:33:54;;;;;;;10.35;5.93;;;;;;;;;;4409621;32;70910;-72
2023/12/30 15:36:41;;;;;;;;;;;;;;;;;;4410244;32;64665;-72
2023/12/30 15:39:28;;;;;;;8.43;5.32;;;;;;;;;;4398338;32;66748;-72
2023/12/30 15:42:14;;;;;;;10.18;5.82;;;;;;;;;;4387760;32;58645;-72
2023/12/30 15:45:03;;;;;;;8.45;5.93;;;;;;;;;;4376790;32;69983;-72
2023/12/30 15:47:50;;;;;;;10.20;6.35;;;;;;;;;;4399148;32;65941;-72
2023/12/30 15:50:37;;;;;;;10.45;6.00;;;;;;;;;;4398622;32;66742;-73
2023/12/30 15:53:23;;;;;;;8.52;5.82;;;;;;;;;;4387875;32;59682;-72
2023/12/30 15:56:10;;;;;;;10.07;6.18;;;;;;;;;;4409135;32;69618;-73
2023/12/30 15:58:56;;;;;;;12.27;6.82;;;;;;;;;;4397770;32;68281;-72
2023/12/30 16:01:44;;;;;;;10.00;6.20;;;;;;;;;;4398570;32;67174;-72
2023/12/30 16:04:30;;;;;;;10.35;6.68;;;;;;;;;;4387817;32;70875;-72
2023/12/30 16:07:17;;;;;;;10.35;6.18;;;;;;;;;;4388007;32;65524;-72
2023/12/30 16:10:04;;;;;;;9.95;6.50;;;;;;;;;;4376978;32;68115;-73
2023/12/30 16:12:51;;;;;;;9.73;5.90;;;;;;;;;;4387560;32;66085;-72
2023/12/30 16:15:37;;;;;;;11.00;6.75;;;;;;;;;;4398091;32;72237;-74
2023/12/30 16:18:24;;;;;;;10.00;5.93;;;;;;;;;;4387380;32;65020;-74
2023/12/30 16:21:12;;;;;;;9.95;6.35;;;;;;;;;;4398392;32;67340;-73
2023/12/30 16:23:58;;;;;;;10.73;6.50;;;;;;;;;;4387565;32;58600;-72
2023/12/30 16:26:46;;;;;;;9.98;6.45;;;;;;;;;;4398292;32;70628;-73
2023/12/30 16:29:39;;;;;;;;;;;;;;;;;;4385027;32;69552;-72
2023/12/30 16:32:27;;;;;;;10.15;6.22;;;;;;;;;;4399323;32;67994;-72
2023/12/30 16:35:14;;;;;;;10.43;6.45;;;;;;;;;;4366635;32;57898;-72
2023/12/30 16:38:01;;;;;;;12.50;7.28;;;;;;;;;;4376897;32;70987;-73
2023/12/30 16:40:48;;;;;;;10.57;6.87;;;;;;;;;;4387332;32;69780;-73
2023/12/30 16:43:35;;;;;;;9.63;6.10;;;;;;;;;;4388140;32;67317;-72
2023/12/30 16:46:22;;;;;;;10.05;6.20;;;;;;;;;;4388228;32;70768;-73
2023/12/30 16:49:09;;;;;;;10.05;6.03;;;;;;;;;;4388195;32;64929;-72
2023/12/30 16:51:56;;;;;;;10.13;6.30;;;;;;;;;;4377224;32;68154;-72
2023/12/30 16:54:43;;;;;;;9.38;6.37;;;;;;;;;;4387207;32;61329;-73
2023/12/30 16:57:29;;;;;;;10.73;6.95;;;;;;;;;;4365837;32;71982;-73
2023/12/30 17:00:17;;;;;;;10.35;6.28;;;;;;;;;;4365845;32;67860;-72
2023/12/30 17:03:04;;;;;;;10.60;6.32;;;;;;;;;;4387636;32;66532;-73
2023/12/30 17:05:51;;;;;;;;;;;;;;;;;;4388217;32;59294;-72
2023/12/30 17:08:37;;;;;;;9.75;5.80;;;;;;;;;;4387651;32;70193;-73
2023/12/30 17:11:24;;;;;;;10.00;5.87;;;;;;;;;;4387582;32;69255;-72
2023/12/30 17:14:13;;;;;;;11.73;6.80;;;;;;;;;;4377063;32;68124;-73
2023/12/30 17:17:00;;;;;;;10.23;6.12;;;;;;;;;;4387574;32;71929;-73
2023/12/30 17:19:46;;;;;;;10.52;6.35;;;;;;;;;;4376494;32;66123;-73